createdAt,value
2022-09-20T00:08:10.574Z,1017.59
2022-09-20T00:22:10.520Z,1017.63
2022-09-20T00:36:10.526Z,1017.62
2022-09-20T00:50:10.589Z,1017.47
2022-09-20T01:04:10.581Z,1017.45
2022-09-20T01:18:10.623Z,1017.47
2022-09-20T01:32:10.688Z,1017.56
2022-09-20T01:46:10.730Z,1017.64
2022-09-20T02:00:10.667Z,1017.63
2022-09-20T02:14:10.802Z,1017.64
2022-09-20T02:28:10.826Z,1017.76
2022-09-20T02:42:10.859Z,1017.75
2022-09-20T02:56:10.850Z,1017.75
2022-09-20T03:10:10.870Z,1017.68
2022-09-20T03:24:10.876Z,1017.68
2022-09-20T03:38:10.877Z,1017.65
2022-09-20T03:52:11.135Z,1017.73
2022-09-20T04:06:10.857Z,1017.59
2022-09-20T04:20:10.887Z,1017.65
2022-09-20T04:34:10.904Z,1017.65
2022-09-20T04:48:10.937Z,1017.86
2022-09-20T05:03:10.950Z,1018
2022-09-20T05:18:10.903Z,1018.07
2022-09-20T05:33:10.912Z,1018.13
2022-09-20T05:48:10.934Z,1018.16
2022-09-20T06:03:10.942Z,1018.36
2022-09-20T06:18:11.026Z,1018.34
2022-09-20T06:34:10.950Z,1018.31
2022-09-20T06:49:10.960Z,1018.28
2022-09-20T07:05:10.997Z,1018.3
2022-09-20T07:20:11.088Z,1018.44
2022-09-20T07:35:11.095Z,1018.48
2022-09-20T07:50:11.115Z,1018.58
2022-09-20T08:05:11.097Z,1018.63
2022-09-20T08:20:11.142Z,1018.66
2022-09-20T08:35:11.138Z,1018.74
2022-09-20T08:50:11.469Z,1018.7
2022-09-20T09:05:11.118Z,1018.7
2022-09-20T09:20:11.191Z,1018.57
2022-09-20T09:35:11.218Z,1018.53
2022-09-20T09:50:11.218Z,1018.38
2022-09-20T10:05:11.223Z,1018.2
2022-09-20T10:20:11.243Z,1018.06
2022-09-20T10:35:11.259Z,1017.96
2022-09-20T10:50:11.257Z,1017.83
2022-09-20T11:05:11.256Z,1017.8
2022-09-20T11:20:11.296Z,1017.74
2022-09-20T11:35:11.310Z,1017.75
2022-09-20T11:50:11.317Z,1017.55
2022-09-20T12:05:11.289Z,1017.51
2022-09-20T12:21:15.230Z,1017.24
2022-09-20T12:36:11.323Z,1017.1
2022-09-20T12:51:11.338Z,1017.01
2022-09-20T13:06:11.323Z,1016.91
2022-09-20T13:21:11.318Z,1016.83
2022-09-20T13:36:11.355Z,1016.61
2022-09-20T13:51:11.370Z,1016.54
2022-09-20T14:06:11.382Z,1016.48
2022-09-20T14:21:11.379Z,1016.35
2022-09-20T14:36:11.386Z,1016.32
2022-09-20T14:51:11.373Z,1016.37
2022-09-20T15:06:11.395Z,1016.3
2022-09-20T15:21:11.545Z,1016.18
2022-09-20T15:36:11.611Z,1016.19
2022-09-20T15:51:11.406Z,1016.09
2022-09-20T16:06:11.438Z,1016.22
2022-09-20T16:21:11.439Z,1016.23
2022-09-20T16:36:11.436Z,1016.38
2022-09-20T16:52:11.427Z,1016.32
2022-09-20T17:07:11.745Z,1016.51
2022-09-20T17:22:11.659Z,1016.71
2022-09-20T17:37:11.519Z,1016.85
2022-09-20T17:52:11.590Z,1017.14
2022-09-20T18:07:11.493Z,1017.33
2022-09-20T18:21:11.490Z,1017.49
2022-09-20T18:36:11.519Z,1017.68
2022-09-20T18:50:11.602Z,1017.91
2022-09-20T19:04:11.539Z,1018
2022-09-20T19:18:11.598Z,1018.14
2022-09-20T19:32:11.587Z,1018.34
2022-09-20T19:46:11.660Z,1018.34
2022-09-20T20:00:11.676Z,1018.49
2022-09-20T20:14:11.676Z,1018.49
2022-09-20T20:28:11.725Z,1018.61
2022-09-20T20:42:11.692Z,1018.62
2022-09-20T20:56:11.733Z,1018.69
2022-09-20T21:10:11.745Z,1018.84
2022-09-20T21:24:11.767Z,1018.96
2022-09-20T21:38:11.751Z,1019.04
2022-09-20T21:52:11.723Z,1019.06
2022-09-20T22:06:11.757Z,1019.09
2022-09-20T22:20:11.755Z,1019.06
2022-09-20T22:34:11.769Z,1019.22
2022-09-20T22:48:11.800Z,1019.21
2022-09-20T23:02:11.781Z,1019.32
2022-09-20T23:16:11.825Z,1019.35
2022-09-20T23:30:11.774Z,1019.73
2022-09-20T23:44:11.784Z,1019.93
2022-09-20T23:58:11.818Z,1020.25
